Time;durP1;ratioP1;P1;durP2;ratioP2;P2;SDS_P1;SDS_P2;PMS_P1;PMS_P2;Temp;Humidity;BMP_temperature;BMP_pressure;BME280_temperature;BME280_humidity;BME280_pressure;Samples;Min_cycle;Max_cycle;Signal;HPM_P1;HPM_P2
2023/10/23 00:02:08;;;;;;;5.60;2.03;;;;;12.90;96818.00;;;;5030245;28;20713;-83
2023/10/23 00:04:59;;;;;;;8.10;2.73;;;;;12.50;96806.00;;;;5030516;28;20580;-85
2023/10/23 00:07:48;;;;;;;6.77;2.37;;;;;12.40;96808.00;;;;5028184;28;20681;-86
2023/10/23 00:10:37;;;;;;;6.43;2.20;;;;;12.10;96814.00;;;;5029171;28;20658;-86
2023/10/23 00:13:26;;;;;;;7.47;2.70;;;;;12.00;96798.00;;;;5028008;28;20209;-85
2023/10/23 00:16:15;;;;;;;12.67;4.00;;;;;11.90;96805.00;;;;5027299;28;20578;-85
2023/10/23 00:19:04;;;;;;;7.00;2.33;;;;;12.20;96809.00;;;;5028370;28;20201;-85
2023/10/23 00:21:54;;;;;;;7.40;2.50;;;;;12.60;96812.00;;;;5028421;28;20232;-86
2023/10/23 00:24:43;;;;;;;7.73;2.57;;;;;12.60;96813.00;;;;5029525;28;20202;-86
2023/10/23 00:27:32;;;;;;;10.27;3.37;;;;;12.60;96824.00;;;;5029612;28;20197;-85
2023/10/23 00:30:22;;;;;;;10.20;3.43;;;;;12.20;96813.00;;;;5028846;28;20205;-85
2023/10/23 00:33:11;;;;;;;7.97;2.63;;;;;12.00;96813.00;;;;5032893;28;20557;-85
2023/10/23 00:36:00;;;;;;;7.13;2.43;;;;;12.00;96805.00;;;;5037298;28;20662;-84
2023/10/23 00:38:50;;;;;;;9.90;3.30;;;;;11.80;96801.00;;;;5032617;28;20720;-85
2023/10/23 00:41:39;;;;;;;6.77;2.30;;;;;11.70;96786.00;;;;5025986;28;20685;-84
2023/10/23 00:44:30;;;;;;;7.10;2.47;;;;;11.60;96791.00;;;;5030584;28;21725;-85
2023/10/23 00:47:21;;;;;;;10.90;3.63;;;;;11.50;96783.00;;;;5034818;28;20204;-85
2023/10/23 00:50:10;;;;;;;5.30;1.90;;;;;11.60;96785.00;;;;5028519;28;20225;-82
2023/10/23 00:52:59;;;;;;;4.37;1.60;;;;;11.70;96782.00;;;;5029698;28;20206;-86
2023/10/23 00:55:51;;;;;;;9.90;3.23;;;;;11.80;96783.00;;;;5026293;28;20193;-83
2023/10/23 00:58:42;;;;;;;6.93;2.33;;;;;11.40;96780.00;;;;5027313;28;20222;-85
2023/10/23 01:01:33;;;;;;;7.10;2.50;;;;;11.30;96787.00;;;;5031900;28;20228;-86
2023/10/23 01:04:22;;;;;;;11.37;3.83;;;;;11.10;96780.00;;;;5031763;28;20597;-84
2023/10/23 01:07:11;;;;;;;8.60;2.93;;;;;11.00;96784.00;;;;5024464;28;20205;-84
2023/10/23 01:10:00;;;;;;;6.13;2.17;;;;;10.70;96789.00;;;;5033016;28;20690;-83
2023/10/23 01:12:52;;;;;;;8.10;2.70;;;;;10.60;96784.00;;;;5026376;28;20201;-86
2023/10/23 01:15:41;;;;;;;5.23;1.90;;;;;10.90;96785.00;;;;5027783;28;20211;-84
2023/10/23 01:18:30;;;;;;;4.17;1.43;;;;;11.20;96791.00;;;;5027783;28;20733;-86
2023/10/23 01:21:19;;;;;;;8.87;3.10;;;;;11.30;96783.00;;;;5029333;28;20236;-86
2023/10/23 01:24:09;;;;;;;5.83;1.97;;;;;11.20;96788.00;;;;5032107;28;20212;-85
2023/10/23 01:26:59;;;;;;;6.33;2.20;;;;;11.10;96795.00;;;;5028486;28;20218;-85
2023/10/23 01:29:48;;;;;;;7.17;2.60;;;;;11.00;96789.00;;;;5028181;28;20216;-82
2023/10/23 01:32:37;;;;;;;5.97;2.20;;;;;11.30;96794.00;;;;5032846;28;20240;-86
2023/10/23 01:35:27;;;;;;;9.60;3.33;;;;;11.40;96793.00;;;;5043020;28;20663;-85
2023/10/23 01:38:16;;;;;;;15.53;5.10;;;;;11.20;96787.00;;;;5029469;28;20217;-86
2023/10/23 01:41:05;;;;;;;4.10;1.53;;;;;11.40;96784.00;;;;5028511;28;20232;-87
2023/10/23 01:43:55;;;;;;;4.97;1.80;;;;;11.50;96785.00;;;;5032192;28;20209;-86
2023/10/23 01:46:44;;;;;;;5.63;1.90;;;;;11.40;96782.00;;;;5029661;28;20193;-86
2023/10/23 01:49:33;;;;;;;4.90;1.73;;;;;11.30;96780.00;;;;5032510;28;20202;-86
2023/10/23 01:52:22;;;;;;;9.87;3.37;;;;;11.60;96778.00;;;;5029734;28;20452;-84
2023/10/23 01:55:12;;;;;;;6.80;2.27;;;;;11.80;96769.00;;;;5028428;28;20201;-85
2023/10/23 01:58:01;;;;;;;7.77;2.53;;;;;11.40;96774.00;;;;5025959;28;20236;-84
2023/10/23 02:00:51;;;;;;;9.47;3.10;;;;;11.30;96776.00;;;;5029710;28;20601;-85
2023/10/23 02:03:40;;;;;;;6.30;2.17;;;;;11.50;96787.00;;;;5035306;28;20671;-86
2023/10/23 02:06:29;;;;;;;4.80;1.70;;;;;11.60;96773.00;;;;5030455;28;20201;-86
2023/10/23 02:09:18;;;;;;;7.70;2.67;;;;;11.60;96782.00;;;;5028252;28;20262;-83
2023/10/23 02:12:08;;;;;;;6.43;2.23;;;;;11.50;96784.00;;;;5028424;28;20225;-85
2023/10/23 02:14:57;;;;;;;10.23;3.43;;;;;11.20;96784.00;;;;5034270;28;20208;-83
2023/10/23 02:17:47;;;;;;;7.43;2.63;;;;;11.30;96777.00;;;;5036789;28;20228;-86
2023/10/23 02:20:36;;;;;;;6.27;2.20;;;;;11.60;96783.00;;;;5031499;28;20264;-84
2023/10/23 02:23:25;;;;;;;9.87;3.40;;;;;11.60;96779.00;;;;5029516;28;20617;-84
2023/10/23 02:26:15;;;;;;;9.70;3.23;;;;;11.90;96780.00;;;;5027811;28;20205;-86
2023/10/23 02:29:04;;;;;;;4.20;1.47;;;;;11.90;96783.00;;;;5027169;28;20197;-85
2023/10/23 02:31:53;;;;;;;4.93;1.77;;;;;11.80;96783.00;;;;5028412;28;20229;-83
2023/10/23 02:34:44;;;;;;;3.80;1.47;;;;;11.70;96786.00;;;;5028477;28;20201;-85
2023/10/23 02:37:33;;;;;;;6.20;2.10;;;;;11.20;96788.00;;;;5024850;28;20204;-84
2023/10/23 02:40:22;;;;;;;12.07;4.00;;;;;11.00;96784.00;;;;5029379;28;20217;-86
2023/10/23 02:43:11;;;;;;;6.53;2.30;;;;;10.80;96787.00;;;;5027011;28;20202;-84
2023/10/23 02:46:02;;;;;;;9.77;3.30;;;;;11.00;96786.00;;;;5029079;28;20204;-85
2023/10/23 02:48:51;;;;;;;7.53;2.50;;;;;11.10;96788.00;;;;5028887;28;20197;-84
2023/10/23 02:51:42;;;;;;;4.33;1.60;;;;;10.60;96787.00;;;;5030816;28;20227;-86
2023/10/23 02:54:31;;;;;;;8.27;2.83;;;;;10.70;96794.00;;;;5030398;28;20210;-85
2023/10/23 02:57:20;;;;;;;4.77;1.73;;;;;11.20;96784.00;;;;5028485;28;20213;-85
2023/10/23 03:00:11;;;;;;;3.43;1.23;;;;;11.30;96796.00;;;;5028207;28;20209;-86
2023/10/23 03:03:00;;;;;;;7.30;2.57;;;;;11.20;96799.00;;;;5031540;28;20193;-85
2023/10/23 03:05:49;;;;;;;10.33;3.47;;;;;11.50;96794.00;;;;5029352;28;20678;-85
2023/10/23 03:08:39;;;;;;;5.80;2.03;;;;;11.80;96798.00;;;;5027662;28;20201;-83
2023/10/23 03:11:28;;;;;;;9.90;3.43;;;;;11.90;96804.00;;;;5028535;28;20596;-85
2023/10/23 03:14:17;;;;;;;11.23;3.70;;;;;12.00;96799.00;;;;5027292;28;20216;-85
2023/10/23 03:17:07;;;;;;;6.33;2.17;;;;;11.50;96800.00;;;;5026023;28;20678;-83
2023/10/23 03:19:56;;;;;;;7.20;2.50;;;;;11.60;96795.00;;;;5030143;28;20227;-84
2023/10/23 03:22:45;;;;;;;7.83;2.53;;;;;11.70;96793.00;;;;5028475;28;20217;-85
2023/10/23 03:25:36;;;;;;;6.60;2.23;;;;;11.90;96793.00;;;;5029539;28;20201;-83
2023/10/23 03:28:25;;;;;;;6.50;2.23;;;;;11.10;96791.00;;;;5027656;28;20670;-84
2023/10/23 03:31:14;;;;;;;4.07;1.47;;;;;10.80;96788.00;;;;5028158;28;20232;-85
2023/10/23 03:34:03;;;;;;;8.73;2.87;;;;;10.90;96798.00;;;;5030431;28;20212;-85
2023/10/23 03:36:53;;;;;;;6.13;2.20;;;;;11.00;96789.00;;;;5029401;28;20201;-85
2023/10/23 03:39:42;;;;;;;5.80;2.03;;;;;10.80;96793.00;;;;5027013;28;20304;-86
2023/10/23 03:42:32;;;;;;;7.13;2.57;;;;;10.90;96804.00;;;;5028703;28;20472;-84
2023/10/23 03:45:21;;;;;;;11.53;3.77;;;;;10.80;96794.00;;;;5027753;28;20204;-86
2023/10/23 03:48:10;;;;;;;12.90;4.13;;;;;11.10;96790.00;;;;5026830;28;20239;-84
2023/10/23 03:51:01;;;;;;;9.63;3.20;;;;;10.80;96801.00;;;;5030053;28;20228;-84
2023/10/23 03:53:50;;;;;;;6.47;2.37;;;;;11.00;96793.00;;;;5029244;28;20304;-85
2023/10/23 03:56:39;;;;;;;6.50;2.30;;;;;11.30;96792.00;;;;5029051;28;20204;-84
2023/10/23 03:59:29;;;;;;;9.13;3.17;;;;;11.40;96800.00;;;;5028621;28;20228;-84
2023/10/23 04:02:18;;;;;;;8.83;2.93;;;;;11.50;96798.00;;;;5027742;28;20232;-85
2023/10/23 04:05:08;;;;;;;5.27;1.87;;;;;11.60;96780.00;;;;5027688;28;20198;-86
2023/10/23 04:07:57;;;;;;;6.00;2.13;;;;;11.40;96781.00;;;;5030314;28;20193;-84
2023/10/23 04:10:49;;;;;;;7.53;2.60;;;;;11.40;96766.00;;;;5028584;28;20220;-84
2023/10/23 04:13:38;;;;;;;7.33;2.43;;;;;11.50;96780.00;;;;5028218;28;20212;-84
2023/10/23 04:16:29;;;;;;;9.93;3.30;;;;;11.20;96775.00;;;;5037148;28;20212;-84
2023/10/23 04:19:18;;;;;;;11.43;3.80;;;;;11.00;96767.00;;;;5033471;28;20229;-83
2023/10/23 04:22:07;;;;;;;6.90;2.33;;;;;10.30;96768.00;;;;5037673;28;20228;-86
2023/10/23 04:24:56;;;;;;;7.67;2.63;;;;;10.10;96772.00;;;;5037786;28;20197;-85
2023/10/23 04:27:45;;;;;;;5.90;2.10;;;;;10.10;96777.00;;;;5025957;28;20220;-85
2023/10/23 04:30:34;;;;;;;4.03;1.50;;;;;10.30;96774.00;;;;5029192;28;20197;-84
2023/10/23 04:33:24;;;;;;;7.90;2.67;;;;;10.80;96774.00;;;;5028953;28;20212;-84
2023/10/23 04:36:15;;;;;;;9.50;3.00;;;;;10.70;96769.00;;;;5027332;28;20205;-84
2023/10/23 04:39:04;;;;;;;7.00;2.43;;;;;10.60;96769.00;;;;5024842;28;20239;-83
2023/10/23 04:41:53;;;;;;;10.97;3.57;;;;;10.30;96764.00;;;;5029138;28;20283;-84
2023/10/23 04:44:42;;;;;;;5.93;2.03;;;;;10.50;96758.00;;;;5028351;28;20213;-85
2023/10/23 04:47:31;;;;;;;8.87;3.33;;;;;10.50;96762.00;;;;5028190;28;20866;-84
2023/10/23 04:50:22;;;;;;;9.63;3.57;;;;;10.60;96744.00;;;;5024877;28;20198;-84
2023/10/23 04:53:11;;;;;;;5.00;2.00;;;;;10.70;96747.00;;;;5028490;28;20193;-84
2023/10/23 04:56:00;;;;;;;6.93;2.83;;;;;10.40;96733.00;;;;5029466;28;20695;-84
2023/10/23 04:58:49;;;;;;;5.73;2.30;;;;;10.70;96747.00;;;;5027865;28;20209;-84
2023/10/23 05:01:38;;;;;;;4.60;1.93;;;;;10.90;96760.00;;;;5031553;28;20225;-85
2023/10/23 05:04:30;;;;;;;8.83;3.57;;;;;10.60;96754.00;;;;5038988;28;20227;-84
2023/10/23 05:07:21;;;;;;;3.53;1.50;;;;;9.80;96752.00;;;;5030674;28;20556;-84
2023/10/23 05:10:11;;;;;;;4.83;2.10;;;;;9.70;96765.00;;;;5032305;28;20197;-85
2023/10/23 05:13:00;;;;;;;5.33;2.17;;;;;9.90;96768.00;;;;5034839;28;20201;-83
2023/10/23 05:15:49;;;;;;;7.07;2.80;;;;;9.70;96770.00;;;;5031308;28;20201;-83
2023/10/23 05:18:38;;;;;;;4.50;1.97;;;;;9.90;96770.00;;;;5032471;28;20636;-83
2023/10/23 05:21:27;;;;;;;8.67;3.57;;;;;10.20;96776.00;;;;5030566;28;20229;-83
2023/10/23 05:24:17;;;;;;;12.30;4.97;;;;;10.30;96779.00;;;;5027603;28;20208;-83
2023/10/23 05:27:06;;;;;;;5.03;2.13;;;;;10.50;96783.00;;;;5038380;28;20193;-84
2023/10/23 05:29:56;;;;;;;4.57;2.10;;;;;10.80;96790.00;;;;5042678;28;20197;-85
2023/10/23 05:32:45;;;;;;;3.40;1.50;;;;;10.70;96786.00;;;;5024377;28;20232;-84
2023/10/23 05:35:34;;;;;;;3.17;1.40;;;;;10.70;96791.00;;;;5020034;28;20614;-84
2023/10/23 05:38:23;;;;;;;5.40;2.40;;;;;10.90;96795.00;;;;5019328;28;20590;-84
2023/10/23 05:41:14;;;;;;;5.83;2.53;;;;;11.10;96802.00;;;;5021658;28;20225;-84
2023/10/23 05:44:03;;;;;;;5.47;2.40;;;;;10.90;96801.00;;;;5013827;28;20202;-84
2023/10/23 05:46:53;;;;;;;7.53;3.20;;;;;10.80;96809.00;;;;5008428;28;20209;-84
2023/10/23 05:49:42;;;;;;;3.90;1.80;;;;;10.80;96811.00;;;;5019075;28;20255;-85
2023/10/23 05:52:31;;;;;;;6.87;2.77;;;;;10.30;96814.00;;;;5021359;28;20237;-83
2023/10/23 05:55:20;;;;;;;7.03;3.17;;;;;10.30;96813.00;;;;5013409;28;20201;-84
2023/10/23 05:58:11;;;;;;;6.90;2.97;;;;;10.40;96807.00;;;;5008204;28;20212;-84
2023/10/23 06:01:05;;;;;;;7.20;3.10;;;;;10.40;96802.00;;;;5011623;28;20589;-85
2023/10/23 06:03:54;;;;;;;3.13;1.47;;;;;10.30;96814.00;;;;5012484;28;20596;-86
2023/10/23 06:06:43;;;;;;;5.87;2.57;;;;;10.50;96803.00;;;;5014976;28;20194;-85
2023/10/23 06:09:32;;;;;;;7.27;3.43;;;;;10.40;96824.00;;;;5010080;28;20303;-83
2023/10/23 06:12:21;;;;;;;5.60;2.60;;;;;10.50;96810.00;;;;5008419;28;20214;-83
2023/10/23 06:15:12;;;;;;;2.17;1.13;;;;;10.60;96811.00;;;;5008952;28;20781;-84
2023/10/23 06:18:01;;;;;;;4.50;2.10;;;;;10.80;96810.00;;;;5010192;28;20576;-84
2023/10/23 06:20:58;;;;;;;7.37;3.17;;;;;10.80;96807.00;;;;5010013;28;20615;-84
2023/10/23 06:23:48;;;;;;;5.45;2.40;;;;;11.00;96796.00;;;;5009654;28;20209;-84
2023/10/23 06:26:37;;;;;;;4.67;2.10;;;;;11.20;96811.00;;;;5014661;28;20206;-84
2023/10/23 06:29:26;;;;;;;;;;;;;11.30;96810.00;;;;5009070;28;20713;-84
2023/10/23 06:32:18;;;;;;;4.57;2.03;;;;;11.40;96809.00;;;;5017995;28;20230;-85
2023/10/23 06:35:07;;;;;;;4.70;2.17;;;;;11.10;96805.00;;;;5030639;28;20204;-85
2023/10/23 06:37:56;;;;;;;6.33;2.87;;;;;11.30;96808.00;;;;5031174;28;20220;-84
2023/10/23 06:40:45;;;;;;;5.33;2.20;;;;;11.30;96813.00;;;;5029731;28;20725;-83
2023/10/23 06:43:35;;;;;;;4.20;1.87;;;;;11.50;96805.00;;;;5031177;28;20209;-86
2023/10/23 06:46:24;;;;;;;10.25;4.30;;;;;11.70;96807.00;;;;5029371;28;20209;-86
2023/10/23 06:49:15;;;;;;;4.50;2.00;;;;;11.70;96819.00;;;;5028913;28;20201;-85
2023/10/23 06:52:05;;;;;;;4.33;1.90;;;;;11.90;96802.00;;;;5026098;28;20221;-85
2023/10/23 06:54:54;;;;;;;5.00;2.07;;;;;12.10;96806.00;;;;5031031;28;20216;-86
2023/10/23 06:57:43;;;;;;;5.07;2.10;;;;;12.20;96809.00;;;;5027960;28;20205;-86
2023/10/23 07:00:32;;;;;;;6.45;2.90;;;;;12.10;96805.00;;;;5030875;28;20228;-86
2023/10/23 07:03:21;;;;;;;4.65;2.20;;;;;12.20;96819.00;;;;5027947;28;20244;-86
2023/10/23 07:06:11;;;;;;;;;;;;;12.20;96812.00;;;;5027077;28;20873;-86
2023/10/23 07:09:00;;;;;;;3.93;1.93;;;;;12.20;96821.00;;;;5030463;28;20404;-85
2023/10/23 07:11:50;;;;;;;5.33;2.23;;;;;12.20;96821.00;;;;5030077;28;20227;-85
2023/10/23 07:14:39;;;;;;;5.03;2.17;;;;;12.30;96806.00;;;;5030883;28;20701;-83
2023/10/23 07:17:28;;;;;;;8.00;3.37;;;;;12.40;96812.00;;;;5030336;28;20733;-84
2023/10/23 07:20:17;;;;;;;5.50;2.23;;;;;12.50;96816.00;;;;5026434;28;20725;-85
2023/10/23 07:23:07;;;;;;;4.57;2.00;;;;;12.70;96812.00;;;;5026939;28;20589;-86
2023/10/23 07:26:07;;;;;;;7.17;2.90;;;;;12.70;96812.00;;;;5029902;28;20212;-86
2023/10/23 07:28:56;;;;;;;4.87;2.17;;;;;13.00;96797.00;;;;5029532;28;20201;-86
2023/10/23 07:31:45;;;;;;;5.23;2.20;;;;;13.20;96795.00;;;;5026747;28;20632;-84
2023/10/23 07:34:34;;;;;;;5.23;2.23;;;;;13.40;96806.00;;;;5015632;28;20210;-86
2023/10/23 07:37:23;;;;;;;8.33;3.50;;;;;13.90;96815.00;;;;5018957;28;20208;-84
2023/10/23 07:40:15;;;;;;;5.73;2.37;;;;;14.50;96814.00;;;;5016639;28;20205;-84
2023/10/23 07:43:04;;;;;;;5.23;2.10;;;;;14.60;96816.00;;;;5009764;28;20212;-85
2023/10/23 07:45:54;;;;;;;8.63;3.13;;;;;14.90;96817.00;;;;5010640;28;20224;-86
2023/10/23 07:48:45;;;;;;;6.13;2.50;;;;;15.10;96825.00;;;;5014728;28;20206;-86
2023/10/23 07:51:34;;;;;;;5.60;2.30;;;;;15.40;96813.00;;;;5015504;28;20248;-84
2023/10/23 07:54:23;;;;;;;9.90;3.73;;;;;15.60;96822.00;;;;5016312;28;20201;-85
2023/10/23 07:57:14;;;;;;;6.17;2.40;;;;;15.90;96810.00;;;;5012043;28;20695;-84
2023/10/23 08:00:06;;;;;;;5.20;2.10;;;;;16.20;96804.00;;;;5017923;28;20248;-86
2023/10/23 08:02:55;;;;;;;5.03;2.03;;;;;16.50;96800.00;;;;5012551;28;20205;-85
2023/10/23 08:05:44;;;;;;;6.10;2.27;;;;;16.40;96802.00;;;;5019017;28;20202;-87
2023/10/23 08:08:33;;;;;;;7.63;3.10;;;;;16.40;96811.00;;;;5015621;28;20209;-86
2023/10/23 08:11:23;;;;;;;9.47;3.57;;;;;16.60;96802.00;;;;5018974;28;20686;-85
2023/10/23 08:14:13;;;;;;;5.97;2.43;;;;;16.80;96802.00;;;;5006958;28;20202;-85
2023/10/23 08:17:02;;;;;;;5.67;2.23;;;;;16.80;96803.00;;;;5015315;28;20667;-85
2023/10/23 08:19:52;;;;;;;5.80;2.30;;;;;17.30;96798.00;;;;5020287;28;20234;-83
2023/10/23 08:22:41;;;;;;;5.93;2.33;;;;;17.30;96798.00;;;;5014685;28;20224;-84
2023/10/23 08:25:30;;;;;;;8.47;3.20;;;;;17.30;96794.00;;;;5015573;28;20228;-86
2023/10/23 08:28:19;;;;;;;7.10;2.60;;;;;17.70;96797.00;;;;5007051;28;20213;-85
2023/10/23 08:31:10;;;;;;;5.67;2.30;;;;;17.90;96789.00;;;;5010742;28;20221;-84
2023/10/23 08:34:05;;;;;;;5.63;2.20;;;;;18.10;96792.00;;;;5005911;28;20201;-83
2023/10/23 08:36:54;;;;;;;7.60;2.93;;;;;18.30;96800.00;;;;5006101;28;20201;-84
2023/10/23 08:39:44;;;;;;;3.77;1.50;;;;;18.00;96808.00;;;;5008440;28;20202;-84
2023/10/23 08:42:34;;;;;;;9.60;3.67;;;;;18.20;96805.00;;;;5016036;28;20229;-86
2023/10/23 08:45:23;;;;;;;10.13;3.60;;;;;18.10;96789.00;;;;5071721;23;20600;-70
2023/10/23 08:48:13;;;;;;;10.30;3.73;;;;;18.00;96790.00;;;;5101321;28;20218;-70
2023/10/23 08:51:02;;;;;;;8.37;3.03;;;;;18.30;96811.00;;;;5106459;28;20198;-70
2023/10/23 08:53:55;;;;;;;6.50;2.50;;;;;18.10;96812.00;;;;5104037;28;20198;-70
2023/10/23 08:56:55;;;;;;;7.77;2.90;;;;;18.40;96812.00;;;;5100502;28;20195;-70
2023/10/23 08:59:44;;;;;;;3.83;1.53;;;;;18.30;96809.00;;;;5100588;28;20206;-70
2023/10/23 09:02:34;;;;;;;5.30;2.10;;;;;18.20;96805.00;;;;5094294;28;20230;-70
2023/10/23 09:05:25;;;;;;;8.50;3.07;;;;;18.80;96808.00;;;;5100028;28;20210;-69
2023/10/23 09:08:14;;;;;;;10.27;3.70;;;;;18.80;96808.00;;;;5101680;28;20212;-70
2023/10/23 09:11:06;;;;;;;6.43;2.37;;;;;19.10;96815.00;;;;5091331;28;20571;-70
2023/10/23 09:13:55;;;;;;;6.90;2.60;;;;;19.40;96807.00;;;;5100593;28;20202;-70
2023/10/23 09:16:44;;;;;;;7.40;2.73;;;;;19.50;96807.00;;;;5096687;28;20209;-70
2023/10/23 09:19:36;;;;;;;10.13;3.77;;;;;19.70;96812.00;;;;5094081;28;20199;-71
2023/10/23 09:22:30;;;;;;;11.53;4.20;;;;;19.90;96808.00;;;;5107356;28;20725;-70
2023/10/23 09:25:20;;;;;;;5.87;2.30;;;;;20.00;96822.00;;;;5099288;28;20588;-70
2023/10/23 09:28:12;;;;;;;11.57;4.23;;;;;20.10;96811.00;;;;5096677;28;20227;-70
2023/10/23 09:31:01;;;;;;;8.33;3.07;;;;;20.10;96807.00;;;;5090592;28;20603;-70
2023/10/23 09:33:51;;;;;;;6.40;2.47;;;;;20.30;96811.00;;;;5095523;28;20199;-69
2023/10/23 09:36:41;;;;;;;6.70;2.40;;;;;20.60;96812.00;;;;5102298;28;20630;-70
2023/10/23 09:39:31;;;;;;;11.70;4.23;;;;;20.70;96805.00;;;;5094775;28;20422;-70
2023/10/23 09:42:20;;;;;;;9.27;3.47;;;;;21.00;96802.00;;;;5106419;28;20218;-69
2023/10/23 09:45:11;;;;;;;5.97;2.30;;;;;21.30;96803.00;;;;5092378;28;20214;-70
2023/10/23 09:48:01;;;;;;;6.43;2.43;;;;;21.40;96799.00;;;;5089687;28;20215;-69
2023/10/23 09:50:50;;;;;;;10.00;3.53;;;;;21.60;96800.00;;;;5100066;28;20214;-69
2023/10/23 09:53:41;;;;;;;6.17;2.37;;;;;21.60;96807.00;;;;5102090;28;20201;-70
2023/10/23 09:56:32;;;;;;;9.07;3.40;;;;;21.40;96799.00;;;;5105611;28;20214;-70
2023/10/23 09:59:26;;;;;;;7.87;2.77;;;;;20.90;96801.00;;;;5101721;28;20610;-69
2023/10/23 10:02:16;;;;;;;6.37;2.50;;;;;21.90;96787.00;;;;5101680;28;20230;-70
2023/10/23 10:05:08;;;;;;;8.40;3.27;;;;;22.40;96773.00;;;;5089512;28;20204;-70
2023/10/23 10:08:02;;;;;;;7.80;2.90;;;;;22.70;96768.00;;;;5102495;28;20695;-70
2023/10/23 10:10:52;;;;;;;11.73;4.13;;;;;22.80;96761.00;;;;5102423;28;20681;-70
2023/10/23 10:13:43;;;;;;;6.27;2.43;;;;;22.90;96765.00;;;;5101874;28;20195;-71
2023/10/23 10:16:33;;;;;;;10.67;3.97;;;;;22.70;96749.00;;;;5097936;28;20228;-70
2023/10/23 10:19:22;;;;;;;14.20;5.10;;;;;22.50;96754.00;;;;5102827;28;20229;-71
2023/10/23 10:22:15;;;;;;;3.57;1.47;;;;;23.30;96750.00;;;;5091941;28;20233;-71
2023/10/23 10:25:07;;;;;;;9.37;3.30;;;;;23.90;96754.00;;;;5088720;28;20196;-69
2023/10/23 10:27:59;;;;;;;7.30;2.80;;;;;24.20;96750.00;;;;5099849;28;20226;-70
2023/10/23 10:30:51;;;;;;;13.40;4.70;;;;;24.60;96749.00;;;;5101089;28;20215;-71
2023/10/23 10:33:41;;;;;;;4.87;1.93;;;;;25.00;96735.00;;;;5094005;28;20194;-72
2023/10/23 10:36:30;;;;;;;14.07;5.10;;;;;24.60;96732.00;;;;5092771;28;20210;-70
2023/10/23 10:39:19;;;;;;;8.97;3.40;;;;;24.40;96722.00;;;;5094215;28;20591;-72
2023/10/23 10:42:09;;;;;;;7.90;3.03;;;;;25.40;96723.00;;;;5097203;28;20215;-71
2023/10/23 10:44:59;;;;;;;5.83;2.33;;;;;24.60;96714.00;;;;5100891;28;20270;-71
2023/10/23 10:47:53;;;;;;;7.67;2.90;;;;;24.10;96706.00;;;;5107915;28;20222;-72
2023/10/23 10:50:43;;;;;;;9.63;3.60;;;;;25.50;96720.00;;;;5100215;28;20202;-71
2023/10/23 10:53:32;;;;;;;12.07;4.43;;;;;25.40;96717.00;;;;5095080;28;20204;-71
2023/10/23 10:56:21;;;;;;;15.40;5.47;;;;;22.90;96711.00;;;;5093958;28;20599;-71
2023/10/23 10:59:10;;;;;;;7.07;2.77;;;;;24.20;96704.00;;;;5094265;28;20195;-71
2023/10/23 11:01:59;;;;;;;7.00;2.57;;;;;24.60;96698.00;;;;5102744;28;20232;-71
2023/10/23 11:04:49;;;;;;;6.57;2.53;;;;;25.00;96696.00;;;;5097310;28;20210;-71
2023/10/23 11:07:39;;;;;;;7.63;2.90;;;;;25.30;96672.00;;;;5095546;28;20226;-71
2023/10/23 11:10:28;;;;;;;15.50;5.57;;;;;25.80;96684.00;;;;5094859;28;20744;-71
2023/10/23 11:13:17;;;;;;;2.43;1.20;;;;;24.90;96694.00;;;;5092327;28;20194;-71
2023/10/23 11:16:07;;;;;;;3.40;1.50;;;;;25.50;96699.00;;;;5093480;28;20207;-70
2023/10/23 11:18:56;;;;;;;7.77;2.90;;;;;25.20;96687.00;;;;5106604;28;20253;-71
2023/10/23 11:21:46;;;;;;;7.17;2.60;;;;;23.70;96701.00;;;;5096669;28;20207;-70
2023/10/23 11:24:35;;;;;;;12.73;4.53;;;;;23.80;96688.00;;;;5095592;28;20200;-69
2023/10/23 11:27:25;;;;;;;13.73;4.60;;;;;23.40;96645.00;;;;5094724;28;20250;-69
2023/10/23 11:30:14;;;;;;;8.73;2.97;;;;;25.60;96650.00;;;;5099964;28;20218;-71
2023/10/23 11:33:03;;;;;;;8.27;3.00;;;;;27.50;96643.00;;;;5108681;28;20241;-71
2023/10/23 11:35:53;;;;;;;12.23;4.77;;;;;28.40;96661.00;;;;5093364;28;20200;-72
2023/10/23 11:38:46;;;;;;;9.97;4.67;;;;;26.70;96647.00;;;;5098808;28;20223;-71
2023/10/23 11:41:35;;;;;;;14.13;5.70;;;;;27.00;96657.00;;;;5097440;28;20210;-71
2023/10/23 11:44:24;;;;;;;10.13;4.27;;;;;27.30;96655.00;;;;5100777;28;20676;-71
2023/10/23 11:47:13;;;;;;;10.27;4.37;;;;;27.40;96660.00;;;;5098455;28;20219;-70
2023/10/23 11:50:05;;;;;;;7.03;3.40;;;;;27.10;96668.00;;;;5107695;28;20200;-71
2023/10/23 11:52:54;;;;;;;8.57;3.77;;;;;26.20;96674.00;;;;5100590;28;20196;-71
2023/10/23 11:55:46;;;;;;;11.57;4.53;;;;;25.20;96674.00;;;;5098276;28;20209;-71
2023/10/23 11:58:35;;;;;;;11.80;4.30;;;;;23.70;96668.00;;;;5088106;28;20235;-71
2023/10/23 12:01:24;;;;;;;10.40;3.80;;;;;23.70;96670.00;;;;5096416;28;20698;-69
2023/10/23 12:04:13;;;;;;;7.83;2.70;;;;;23.80;96664.00;;;;5091699;28;20231;-70
2023/10/23 12:07:04;;;;;;;6.40;2.43;;;;;24.10;96675.00;;;;5099359;28;20215;-70
2023/10/23 12:09:53;;;;;;;7.10;2.60;;;;;24.30;96669.00;;;;5096882;28;20200;-71
2023/10/23 12:12:44;;;;;;;6.20;2.40;;;;;24.70;96658.00;;;;5096890;28;20206;-71
2023/10/23 12:15:33;;;;;;;10.33;3.67;;;;;24.80;96666.00;;;;5097088;28;20203;-71
2023/10/23 12:18:23;;;;;;;8.77;3.13;;;;;25.00;96656.00;;;;5097291;28;20230;-70
2023/10/23 12:21:13;;;;;;;7.83;2.70;;;;;25.30;96654.00;;;;5097924;28;20198;-70
2023/10/23 12:24:05;;;;;;;2.93;1.23;;;;;24.60;96658.00;;;;5093625;28;20764;-69
2023/10/23 12:26:54;;;;;;;8.27;2.90;;;;;23.90;96661.00;;;;5102043;28;20206;-70
2023/10/23 12:29:45;;;;;;;7.67;2.77;;;;;23.10;96653.00;;;;5106521;28;20208;-70
2023/10/23 12:32:35;;;;;;;13.80;4.97;;;;;24.10;96652.00;;;;5104901;28;20668;-70
2023/10/23 12:35:25;;;;;;;11.73;4.07;;;;;24.60;96653.00;;;;5093994;28;20215;-70
2023/10/23 12:38:14;;;;;;;10.87;3.87;;;;;24.00;96651.00;;;;5093978;28;20215;-71
2023/10/23 12:41:03;;;;;;;7.83;2.87;;;;;24.40;96640.00;;;;5099789;28;20206;-69
2023/10/23 12:43:52;;;;;;;6.17;2.20;;;;;24.70;96656.00;;;;5096910;28;20594;-70
2023/10/23 12:46:42;;;;;;;3.67;1.40;;;;;24.50;96644.00;;;;5102399;28;20206;-70
2023/10/23 12:49:32;;;;;;;13.13;4.57;;;;;24.20;96638.00;;;;5095900;28;20673;-70
2023/10/23 12:52:21;;;;;;;10.00;3.50;;;;;24.40;96626.00;;;;5097642;28;20210;-70
2023/10/23 12:55:10;;;;;;;7.47;2.77;;;;;23.80;96606.00;;;;5096928;28;20553;-70
2023/10/23 12:58:00;;;;;;;6.87;2.60;;;;;24.50;96619.00;;;;5094208;28;20722;-70
2023/10/23 13:00:49;;;;;;;12.37;4.47;;;;;25.30;96627.00;;;;5106547;28;20198;-70
2023/10/23 13:03:40;;;;;;;7.93;2.93;;;;;23.90;96625.00;;;;5088259;28;20579;-70
2023/10/23 13:06:29;;;;;;;8.93;3.27;;;;;23.30;96626.00;;;;5095320;28;20208;-70
2023/10/23 13:09:18;;;;;;;6.13;2.27;;;;;24.10;96586.00;;;;5094724;28;20205;-69
2023/10/23 13:12:08;;;;;;;9.43;3.37;;;;;26.60;96596.00;;;;5104067;28;20246;-70
2023/10/23 13:14:57;;;;;;;10.93;4.23;;;;;27.80;96594.00;;;;5106802;28;20215;-70
2023/10/23 13:17:46;;;;;;;13.70;10.10;;;;;28.50;96591.00;;;;5100981;28;20218;-71
2023/10/23 13:20:36;;;;;;;113.33;107.73;;;;;27.20;96604.00;;;;5095645;28;20252;-71
2023/10/23 13:23:25;;;;;;;143.32;136.45;;;;;25.60;96619.00;;;;5100867;28;20222;-70
2023/10/23 13:26:14;;;;;;;112.40;106.78;;;;;25.70;96603.00;;;;5097154;28;20199;-71
2023/10/23 13:29:04;;;;;;;129.75;124.90;;;;;28.40;96612.00;;;;5099768;27;20713;-70
2023/10/23 13:31:53;;;;;;;198.15;190.18;;;;;28.60;96604.00;;;;5102090;28;20213;-71
2023/10/23 13:34:42;;;;;;;;;;;;;29.20;96610.00;;;;5101379;28;20508;-72
2023/10/23 13:37:32;;;;;;;;;;;;;29.80;96628.00;;;;5105617;28;20396;-71
2023/10/23 13:40:22;;;;;;;;;;;;;25.70;96617.00;;;;5101946;27;19923;-70
2023/10/23 13:43:11;;;;;;;;;;;;;26.10;96606.00;;;;5108338;27;20003;-70
2023/10/23 13:46:00;;;;;;;;;;;;;24.60;96598.00;;;;5104846;27;19934;-71
2023/10/23 13:48:49;;;;;;;;;;;;;25.60;96569.00;;;;5108103;28;19920;-71
2023/10/23 13:51:37;;;;;;;;;;;;;27.00;96600.00;;;;5107583;27;19920;-71
2023/10/23 13:54:28;;;;;;;;;;;;;26.90;96603.00;;;;5098784;28;20293;-71
2023/10/23 13:57:16;;;;;;;;;;;;;26.50;96561.00;;;;5101041;28;19930;-71
2023/10/23 14:00:06;;;;;;;;;;;;;27.40;96583.00;;;;5102111;28;19924;-71
2023/10/23 14:02:55;;;;;;;;;;;;;25.50;96592.00;;;;5107767;28;19927;-71
2023/10/23 14:05:44;;;;;;;;;;;;;26.50;96582.00;;;;5107286;28;19920;-71
2023/10/23 14:08:33;;;;;;;;;;;;;25.00;96599.00;;;;5094623;28;19920;-70
2023/10/23 14:11:24;;;;;;;;;;;;;24.60;96595.00;;;;5103185;27;19933;-71
2023/10/23 14:14:13;;;;;;;;;;;;;25.00;96581.00;;;;5107019;28;19920;-71